createdAt,value
2018-03-17T00:00:34.966Z,99.99
2018-03-17T00:01:34.932Z,99.89
2018-03-17T00:02:34.898Z,99.99
2018-03-17T00:03:34.861Z,99.99
2018-03-17T00:04:34.839Z,99.99
2018-03-17T00:05:34.797Z,99.99
2018-03-17T00:06:34.764Z,99.89
2018-03-17T00:07:34.730Z,99.52
2018-03-17T00:08:34.701Z,99.89
2018-03-17T00:09:34.668Z,99.99
2018-03-17T00:10:35.085Z,99.99
2018-03-17T00:11:34.603Z,99.99
2018-03-17T00:12:34.569Z,99.89
2018-03-17T00:13:34.294Z,99.52
2018-03-17T00:14:34.501Z,99.23
2018-03-17T00:15:34.725Z,99.52
2018-03-17T00:16:34.439Z,99.42
2018-03-17T00:17:34.403Z,99.52
2018-03-17T00:18:34.373Z,99.52
2018-03-17T00:19:34.343Z,99.14
2018-03-17T00:20:34.059Z,99.14
2018-03-17T00:21:34.274Z,99.42
2018-03-17T00:22:34.240Z,99.04
2018-03-17T00:23:34.206Z,99.33
2018-03-17T00:24:34.172Z,99.61
2018-03-17T00:25:34.144Z,99.33
2018-03-17T00:26:34.112Z,99.14
2018-03-17T00:27:34.088Z,98.95
2018-03-17T00:28:34.050Z,98.95
2018-03-17T00:29:34.014Z,98.95
2018-03-17T00:30:34.022Z,99.23
2018-03-17T00:31:33.948Z,99.14
2018-03-17T00:32:33.911Z,99.14
2018-03-17T00:33:33.630Z,99.14
2018-03-17T00:34:33.850Z,99.04
2018-03-17T00:35:33.813Z,99.04
2018-03-17T00:36:33.534Z,99.14
2018-03-17T00:37:33.746Z,99.33
2018-03-17T00:38:33.727Z,98.66
2018-03-17T00:39:33.682Z,98.47
2018-03-17T00:40:33.651Z,98.85
2018-03-17T00:41:33.618Z,98.76
2018-03-17T00:42:33.599Z,98.57
2018-03-17T00:43:33.554Z,98.19
2018-03-17T00:44:33.521Z,98.19
2018-03-17T00:45:33.488Z,97.91
2018-03-17T00:46:33.461Z,98.19
2018-03-17T00:47:33.523Z,98.38
2018-03-17T00:48:33.395Z,98
2018-03-17T00:49:33.356Z,97.91
2018-03-17T00:50:33.327Z,98.1
2018-03-17T00:51:33.289Z,98
2018-03-17T00:52:33.258Z,98
2018-03-17T00:53:33.224Z,98.1
2018-03-17T00:54:33.186Z,98.47
2018-03-17T00:55:33.160Z,97.63
2018-03-17T00:56:33.128Z,97.63
2018-03-17T00:57:33.178Z,98
2018-03-17T00:58:33.058Z,97.34
2018-03-17T00:59:33.027Z,97.72
2018-03-17T01:00:32.990Z,97.34
2018-03-17T01:01:32.970Z,97.15
2018-03-17T01:02:32.927Z,97.44
2018-03-17T01:03:32.892Z,97.15
2018-03-17T01:04:32.861Z,97.25
2018-03-17T01:05:32.832Z,97.15
2018-03-17T01:06:32.794Z,97.25
2018-03-17T01:07:32.760Z,97.25
2018-03-17T01:08:32.481Z,96.96
2018-03-17T01:09:32.701Z,97.25
2018-03-17T01:10:32.665Z,97.15
2018-03-17T01:11:32.628Z,97.06
2018-03-17T01:12:32.596Z,97.06
2018-03-17T01:13:32.566Z,96.78
2018-03-17T01:14:32.596Z,96.3
2018-03-17T01:15:32.498Z,96.59
2018-03-17T01:16:32.464Z,96.68
2018-03-17T01:17:32.428Z,96.68
2018-03-17T01:18:32.395Z,96.78
2018-03-17T01:19:32.365Z,96.68
2018-03-17T01:20:32.332Z,96.87
2018-03-17T01:21:32.301Z,95.73
2018-03-17T01:22:32.266Z,96.4
2018-03-17T01:23:32.238Z,96.4
2018-03-17T01:24:32.203Z,96.21
2018-03-17T01:25:32.170Z,96.4
2018-03-17T01:26:32.129Z,96.21
2018-03-17T01:27:32.099Z,96.4
2018-03-17T01:28:32.064Z,96.11
2018-03-17T01:29:32.034Z,96.02
2018-03-17T01:30:32.012Z,95.87
2018-03-17T01:31:31.967Z,95.73
2018-03-17T01:32:31.689Z,95.64
2018-03-17T01:33:31.902Z,95.73
2018-03-17T01:34:31.866Z,95.4
2018-03-17T01:35:31.835Z,95.07
2018-03-17T01:36:31.798Z,95.45
2018-03-17T01:37:31.766Z,95.31
2018-03-17T01:38:31.734Z,95.21
2018-03-17T01:39:31.710Z,95.36
2018-03-17T01:40:31.668Z,95.4
2018-03-17T01:41:31.640Z,95.17
2018-03-17T01:42:31.600Z,94.79
2018-03-17T01:43:31.570Z,94.98
2018-03-17T01:44:31.289Z,94.98
2018-03-17T01:45:31.502Z,94.41
2018-03-17T01:46:31.489Z,94.79
2018-03-17T01:47:31.434Z,94.89
2018-03-17T01:48:31.402Z,93.94
2018-03-17T01:49:31.123Z,94.03
2018-03-17T01:50:31.348Z,94.41
2018-03-17T01:51:31.306Z,94.6
2018-03-17T01:52:31.272Z,94.6
2018-03-17T01:53:31.236Z,94.03
2018-03-17T01:54:31.205Z,94.13
2018-03-17T01:55:31.174Z,93.47
2018-03-17T01:56:31.142Z,93.66
2018-03-17T01:57:31.105Z,93.37
2018-03-17T01:58:31.075Z,93.47
2018-03-17T01:59:31.040Z,93.28
2018-03-17T02:00:31.003Z,93.37
2018-03-17T02:01:30.971Z,93.56
2018-03-17T02:02:30.940Z,93.47
2018-03-17T02:03:30.656Z,93.37
2018-03-17T02:04:30.874Z,93.66
2018-03-17T02:05:30.838Z,93.56
2018-03-17T02:06:30.560Z,93.47
2018-03-17T02:07:30.774Z,93.18
2018-03-17T02:08:30.743Z,92.71
2018-03-17T02:09:30.710Z,92.9
2018-03-17T02:10:30.675Z,92.99
2018-03-17T02:11:30.646Z,92.71
2018-03-17T02:12:30.608Z,92.61
2018-03-17T02:13:30.580Z,93.13
2018-03-17T02:14:30.293Z,92.85
2018-03-17T02:15:30.510Z,92.71
2018-03-17T02:16:30.475Z,92.61
2018-03-17T02:17:30.442Z,92.85
2018-03-17T02:18:30.410Z,92.33
2018-03-17T02:19:30.381Z,92.24
2018-03-17T02:20:30.356Z,92.14
2018-03-17T02:21:30.311Z,91.67
2018-03-17T02:22:30.282Z,91.82
2018-03-17T02:23:30.243Z,91.86
2018-03-17T02:24:30.215Z,91.91
2018-03-17T02:25:30.174Z,91.72
2018-03-17T02:26:30.145Z,91.82
2018-03-17T02:27:30.121Z,91.72
2018-03-17T02:28:30.080Z,92
2018-03-17T02:29:30.048Z,91.82
2018-03-17T02:30:30.028Z,91.82
2018-03-17T02:31:29.979Z,91.82
2018-03-17T02:32:29.943Z,91.63
2018-03-17T02:33:29.916Z,91.63
2018-03-17T02:34:29.881Z,91.82
2018-03-17T02:35:29.849Z,91.72
2018-03-17T02:36:29.809Z,91.72
2018-03-17T02:37:29.781Z,91.44
2018-03-17T02:38:29.747Z,91.44
2018-03-17T02:39:29.712Z,91.44
2018-03-17T02:40:29.684Z,91.44
2018-03-17T02:41:29.647Z,91.44
2018-03-17T02:42:29.616Z,91.63
2018-03-17T02:43:29.583Z,91.34
2018-03-17T02:44:29.551Z,91.44
2018-03-17T02:45:29.517Z,91.15
2018-03-17T02:46:29.481Z,90.87
2018-03-17T02:47:29.446Z,91.34
2018-03-17T02:48:29.469Z,90.77
2018-03-17T02:49:29.381Z,90.4
2018-03-17T02:50:29.352Z,90.11
2018-03-17T02:51:29.315Z,90.59
2018-03-17T02:52:29.332Z,90.68
2018-03-17T02:53:29.254Z,90.3
2018-03-17T02:54:29.221Z,90.49
2018-03-17T02:55:29.182Z,90.68
2018-03-17T02:56:29.155Z,90.68
2018-03-17T02:57:29.115Z,90.77
2018-03-17T02:58:29.086Z,90.77
2018-03-17T02:59:29.048Z,90.68
2018-03-17T03:00:29.013Z,90.4
2018-03-17T03:01:28.976Z,90.3
2018-03-17T03:02:28.947Z,90.4
2018-03-17T03:03:28.914Z,90.21
2018-03-17T03:04:28.630Z,90.49
2018-03-17T03:05:28.846Z,90.77
2018-03-17T03:06:28.818Z,90.87
2018-03-17T03:07:28.802Z,90.96
2018-03-17T03:08:28.749Z,90.59
2018-03-17T03:09:28.713Z,90.4
2018-03-17T03:10:28.678Z,90.59
2018-03-17T03:11:28.644Z,90.21
2018-03-17T03:12:28.615Z,90.3
2018-03-17T03:13:28.577Z,90.3
2018-03-17T03:14:28.297Z,90.49
2018-03-17T03:15:28.510Z,90.11
2018-03-17T03:16:28.480Z,90.21
2018-03-17T03:17:28.447Z,90.21
2018-03-17T03:18:28.411Z,90.3
2018-03-17T03:19:28.382Z,90.21
2018-03-17T03:20:28.343Z,90.4
2018-03-17T03:21:28.310Z,90.3
2018-03-17T03:22:28.279Z,89.92
2018-03-17T03:23:27.993Z,89.92
2018-03-17T03:24:27.961Z,90.02
2018-03-17T03:25:28.175Z,89.45
2018-03-17T03:26:28.143Z,89.92
2018-03-17T03:27:28.109Z,88.98
2018-03-17T03:28:28.074Z,89.17
2018-03-17T03:29:28.105Z,88.98
2018-03-17T03:30:28.013Z,89.45
2018-03-17T03:31:27.976Z,88.79
2018-03-17T03:32:27.938Z,89.07
2018-03-17T03:33:27.912Z,88.98
2018-03-17T03:34:27.875Z,89.07
2018-03-17T03:35:27.846Z,88.7
2018-03-17T03:36:27.805Z,88.23
2018-03-17T03:37:27.772Z,88.79
2018-03-17T03:38:27.743Z,88.32
2018-03-17T03:39:27.707Z,88.32
2018-03-17T03:40:27.674Z,88.32
2018-03-17T03:41:27.642Z,88.79
2018-03-17T03:42:27.606Z,88.23
2018-03-17T03:43:27.579Z,88.7
2018-03-17T03:44:27.292Z,88.6
2018-03-17T03:45:27.504Z,88.7
2018-03-17T03:46:27.473Z,88.42
2018-03-17T03:47:27.443Z,88.23
2018-03-17T03:48:27.408Z,88.6
2018-03-17T03:49:27.378Z,88.32
2018-03-17T03:50:27.344Z,88.42
2018-03-17T03:51:27.307Z,88.23
2018-03-17T03:52:27.271Z,88.32
2018-03-17T03:53:27.238Z,88.42
2018-03-17T03:54:27.203Z,88.32
2018-03-17T03:55:27.172Z,88.13
2018-03-17T03:56:27.134Z,88.6
2018-03-17T03:57:27.103Z,88.32
2018-03-17T03:58:27.071Z,88.51
2018-03-17T03:59:26.788Z,89.07
2018-03-17T04:00:27.007Z,88.98
2018-03-17T04:01:26.969Z,88.89
2018-03-17T04:02:26.939Z,88.98
2018-03-17T04:03:26.901Z,89.26
2018-03-17T04:04:26.869Z,88.98
2018-03-17T04:05:26.836Z,89.36
2018-03-17T04:06:26.803Z,89.17
2018-03-17T04:07:26.765Z,89.36
2018-03-17T04:08:26.732Z,89.64
2018-03-17T04:09:26.453Z,89.64
2018-03-17T04:10:26.421Z,89.45
2018-03-17T04:11:26.632Z,89.64
2018-03-17T04:12:26.602Z,89.64
2018-03-17T04:13:26.516Z,89.45
2018-03-17T04:14:26.533Z,89.92
2018-03-17T04:15:26.499Z,90.11
2018-03-17T04:16:26.465Z,90.11
2018-03-17T04:17:26.437Z,89.92
2018-03-17T04:18:26.398Z,90.11
2018-03-17T04:19:26.367Z,90.3
2018-03-17T04:20:26.340Z,90.21
2018-03-17T04:21:26.295Z,89.73
2018-03-17T04:22:26.269Z,90.49
2018-03-17T04:23:26.230Z,90.87
2018-03-17T04:24:25.949Z,91.25
2018-03-17T04:25:26.160Z,90.77
2018-03-17T04:26:26.131Z,91.63
2018-03-17T04:27:26.096Z,91.34
2018-03-17T04:28:26.060Z,91.44
2018-03-17T04:29:26.027Z,91.44
2018-03-17T04:30:25.992Z,91.82
2018-03-17T04:31:25.963Z,91.72
2018-03-17T04:32:25.927Z,91.72
2018-03-17T04:33:25.891Z,91.44
2018-03-17T04:34:25.858Z,92.29
2018-03-17T04:35:25.826Z,91.63
2018-03-17T04:36:25.791Z,92.1
2018-03-17T04:37:25.758Z,91.53
2018-03-17T04:38:25.725Z,91.63
2018-03-17T04:39:25.690Z,91.82
2018-03-17T04:40:25.655Z,91.34
2018-03-17T04:41:25.626Z,91.44
2018-03-17T04:42:25.590Z,91.44
2018-03-17T04:43:25.557Z,91.44
2018-03-17T04:44:25.523Z,91.82
2018-03-17T04:45:25.489Z,91.91
2018-03-17T04:46:25.452Z,90.87
2018-03-17T04:47:25.423Z,91.06
2018-03-17T04:48:25.390Z,91.25
2018-03-17T04:49:25.368Z,90.87
2018-03-17T04:50:25.319Z,91.06
2018-03-17T04:51:25.036Z,91.25
2018-03-17T04:52:25.253Z,90.96
2018-03-17T04:53:24.969Z,90.49
2018-03-17T04:54:25.187Z,90.77
2018-03-17T04:55:25.153Z,90.87
2018-03-17T04:56:24.868Z,90.68
2018-03-17T04:57:25.081Z,90.59
2018-03-17T04:58:25.047Z,90.4
2018-03-17T04:59:25.013Z,90.68
2018-03-17T05:00:24.979Z,90.68
2018-03-17T05:01:24.952Z,90.59
2018-03-17T05:02:24.914Z,90.68
2018-03-17T05:03:24.877Z,90.77
2018-03-17T05:04:24.842Z,90.68
2018-03-17T05:05:24.816Z,90.68
2018-03-17T05:06:24.786Z,90.11
2018-03-17T05:07:24.742Z,90.4
2018-03-17T05:08:24.710Z,90.3
2018-03-17T05:09:24.676Z,90.11
2018-03-17T05:10:24.643Z,90.45
2018-03-17T05:11:24.607Z,90.4
2018-03-17T05:12:24.577Z,90.4
2018-03-17T05:13:24.290Z,90.59
2018-03-17T05:14:24.504Z,90.11
2018-03-17T05:15:24.473Z,90.16
2018-03-17T05:16:24.439Z,90.64
2018-03-17T05:17:24.401Z,90.54
2018-03-17T05:18:24.377Z,90.07
2018-03-17T05:19:24.338Z,90.26
2018-03-17T05:20:24.301Z,90.11
2018-03-17T05:21:24.273Z,90.64
2018-03-17T05:22:24.240Z,90.64
2018-03-17T05:23:24.201Z,90.64
2018-03-17T05:24:24.167Z,90.92
2018-03-17T05:25:24.133Z,90.45
2018-03-17T05:26:24.103Z,90.07
2018-03-17T05:27:24.069Z,90.35
2018-03-17T05:28:24.033Z,90.26
2018-03-17T05:29:23.996Z,90.35
2018-03-17T05:30:23.961Z,90.54
2018-03-17T05:31:23.927Z,90.07
2018-03-17T05:32:23.895Z,90.54
2018-03-17T05:33:23.860Z,90.26
2018-03-17T05:34:23.826Z,89.97
2018-03-17T05:35:23.788Z,90.16
2018-03-17T05:36:23.508Z,89.97
2018-03-17T05:37:23.729Z,90.16
2018-03-17T05:38:23.688Z,90.35
2018-03-17T05:39:23.654Z,90.54
2018-03-17T05:40:23.622Z,90.07
2018-03-17T05:41:23.592Z,91.01
2018-03-17T05:42:23.558Z,90.64
2018-03-17T05:43:23.597Z,90.64
2018-03-17T05:44:23.483Z,90.35
2018-03-17T05:45:23.451Z,90.26
2018-03-17T05:46:23.166Z,90.54
2018-03-17T05:47:23.381Z,90.35
2018-03-17T05:48:23.100Z,90.45
2018-03-17T05:49:23.314Z,90.26
2018-03-17T05:50:23.279Z,90.35
2018-03-17T05:51:23.246Z,89.78
2018-03-17T05:52:23.212Z,89.88
2018-03-17T05:53:23.182Z,90.26
2018-03-17T05:54:23.145Z,90.16
2018-03-17T05:55:23.107Z,90.07
2018-03-17T05:56:23.080Z,90.16
2018-03-17T05:57:23.035Z,89.78
2018-03-17T05:58:23.032Z,89.88
2018-03-17T05:59:22.970Z,89.69
2018-03-17T06:00:22.935Z,89.4
2018-03-17T06:01:22.910Z,89.31
2018-03-17T06:02:22.877Z,89.4
2018-03-17T06:03:22.838Z,89.78
2018-03-17T06:04:22.875Z,89.5
2018-03-17T06:05:22.765Z,89.69
2018-03-17T06:06:22.730Z,89.59
2018-03-17T06:07:22.705Z,89.59
2018-03-17T06:08:22.667Z,89.5
2018-03-17T06:09:22.628Z,89.4
2018-03-17T06:10:22.595Z,89.59
2018-03-17T06:11:22.562Z,89.4
2018-03-17T06:12:22.524Z,89.59
2018-03-17T06:13:22.489Z,89.5
2018-03-17T06:14:22.459Z,89.88
2018-03-17T06:15:22.419Z,89.5
2018-03-17T06:16:22.387Z,89.4
2018-03-17T06:17:22.104Z,89.78
2018-03-17T06:18:22.322Z,89.59
2018-03-17T06:19:22.286Z,89.97
2018-03-17T06:20:22.251Z,90.16
2018-03-17T06:21:22.221Z,90.26
2018-03-17T06:22:22.180Z,89.88
2018-03-17T06:23:22.146Z,89.31
2018-03-17T06:24:22.112Z,89.5
2018-03-17T06:25:22.144Z,89.97
2018-03-17T06:26:22.042Z,89.69
2018-03-17T06:27:22.008Z,89.5
2018-03-17T06:28:21.986Z,89.88
2018-03-17T06:29:21.936Z,89.78
2018-03-17T06:30:21.906Z,90.07
2018-03-17T06:31:21.869Z,89.4
2018-03-17T06:32:21.841Z,89.5
2018-03-17T06:33:21.798Z,89.69
2018-03-17T06:34:21.762Z,89.59
2018-03-17T06:35:21.733Z,89.31
2018-03-17T06:36:21.699Z,89.59
2018-03-17T06:37:21.661Z,89.78
2018-03-17T06:38:21.629Z,89.03
2018-03-17T06:39:21.592Z,89.31
2018-03-17T06:40:21.310Z,89.31
2018-03-17T06:41:21.526Z,89.31
2018-03-17T06:42:21.495Z,89.12
2018-03-17T06:43:21.518Z,89.03
2018-03-17T06:44:21.178Z,89.78
2018-03-17T06:45:21.150Z,89.03
2018-03-17T06:46:21.355Z,88.93
2018-03-17T06:47:21.082Z,88.84
2018-03-17T06:48:21.043Z,89.03
2018-03-17T06:49:21.262Z,88.93
2018-03-17T06:50:21.417Z,88.93
2018-03-17T06:51:21.552Z,88.93
2018-03-17T06:52:21.252Z,89.03
2018-03-17T06:53:21.542Z,88.46
2018-03-17T06:54:21.755Z,88.65
2018-03-17T06:55:21.032Z,88.56
2018-03-17T06:56:21.056Z,88.84
2018-03-17T06:57:21.615Z,89.12
2018-03-17T06:58:21.434Z,89.12
2018-03-17T06:59:21.884Z,88.84
2018-03-17T07:00:22.510Z,89.03
2018-03-17T07:01:21.759Z,89.12
2018-03-17T07:02:21.018Z,89.78
2018-03-17T07:03:20.956Z,89.31
2018-03-17T07:04:21.252Z,89.12
2018-03-17T07:05:21.634Z,88.75
2018-03-17T07:06:21.953Z,89.12
2018-03-17T07:07:22.349Z,88.75
2018-03-17T07:08:21.864Z,89.22
2018-03-17T07:09:21.682Z,88.28
2018-03-17T07:10:21.979Z,88.18
2018-03-17T07:11:22.055Z,88.18
2018-03-17T07:12:21.614Z,88.09
2018-03-17T07:13:20.789Z,88.65
2018-03-17T07:14:21.243Z,88.75
2018-03-17T07:15:21.304Z,88.37
2018-03-17T07:16:21.304Z,88.65
2018-03-17T07:17:20.974Z,88.75
2018-03-17T07:18:20.580Z,88.09
2018-03-17T07:19:20.835Z,88.18
2018-03-17T07:20:21.502Z,88.28
2018-03-17T07:21:20.121Z,88.18
2018-03-17T07:22:20.222Z,88.56
2018-03-17T07:23:20.212Z,88.18
2018-03-17T07:24:21.094Z,88.37
2018-03-17T07:25:21.307Z,88.28
2018-03-17T07:26:20.779Z,88.09
2018-03-17T07:27:21.358Z,88.37
2018-03-17T07:28:21.215Z,88.37
2018-03-17T07:29:20.911Z,88.37
2018-03-17T07:30:20.205Z,88.18
2018-03-17T07:31:20.402Z,88.28
2018-03-17T07:32:21.501Z,88.28
2018-03-17T07:33:21.299Z,88.28
2018-03-17T07:34:20.849Z,88.75
2018-03-17T07:35:20.232Z,88.18
2018-03-17T07:36:20.760Z,88.93
2018-03-17T07:37:20.292Z,89.22
2018-03-17T07:38:20.910Z,89.03
2018-03-17T07:39:19.946Z,89.12
2018-03-17T07:40:20.729Z,89.03
2018-03-17T07:41:19.699Z,88.84
2018-03-17T07:42:19.529Z,88.84
2018-03-17T07:43:19.774Z,89.12
2018-03-17T07:44:19.870Z,89.22
2018-03-17T07:45:20.019Z,88.93
2018-03-17T07:46:20.380Z,89.12
2018-03-17T07:47:20.729Z,89.69
2018-03-17T07:48:20.534Z,89.69
2018-03-17T07:49:20.101Z,89.59
2018-03-17T07:50:20.852Z,89.69
2018-03-17T07:51:19.855Z,89.5
2018-03-17T07:52:19.749Z,89.97
2018-03-17T07:53:19.703Z,90.07
2018-03-17T07:54:20.236Z,89.78
2018-03-17T07:55:19.404Z,89.97
2018-03-17T07:56:19.768Z,90.16
2018-03-17T07:57:19.496Z,90.16
2018-03-17T07:58:19.751Z,90.54
2018-03-17T07:59:19.954Z,90.35
2018-03-17T08:00:19.598Z,90.45
2018-03-17T08:01:20.077Z,90.82
2018-03-17T08:02:19.237Z,90.82
2018-03-17T08:03:20.056Z,91.39
2018-03-17T08:04:18.776Z,91.01
2018-03-17T08:05:19.533Z,91.58
2018-03-17T08:06:19.000Z,91.49
2018-03-17T08:07:19.771Z,91.58
2018-03-17T08:08:19.463Z,91.86
2018-03-17T08:09:19.269Z,91.77
2018-03-17T08:10:19.657Z,91.39
2018-03-17T08:11:18.947Z,91.58
2018-03-17T08:12:19.280Z,92.24
2018-03-17T08:13:19.136Z,92.24
2018-03-17T08:14:19.297Z,92.8
2018-03-17T08:15:19.757Z,92.52
2018-03-17T08:16:19.655Z,92.33
2018-03-17T08:17:19.380Z,92.8
2018-03-17T08:18:18.689Z,92.43
2018-03-17T08:19:18.600Z,92.52
2018-03-17T08:20:18.573Z,92.43
2018-03-17T08:21:18.571Z,92.52
2018-03-17T08:22:18.759Z,92.8
2018-03-17T08:23:19.568Z,93.28
2018-03-17T08:24:19.708Z,93.28
2018-03-17T08:25:18.736Z,93.75
2018-03-17T08:26:19.409Z,93.84
2018-03-17T08:27:18.720Z,94.22
2018-03-17T08:28:18.811Z,94.03
2018-03-17T08:29:18.208Z,94.89
2018-03-17T08:30:18.929Z,94.32
2018-03-17T08:31:18.170Z,94.6
2018-03-17T08:32:18.159Z,94.98
2018-03-17T08:33:18.211Z,95.17
2018-03-17T08:34:18.017Z,95.07
2018-03-17T08:35:18.542Z,94.51
2018-03-17T08:36:17.938Z,95.36
2018-03-17T08:37:18.354Z,95.54
2018-03-17T08:38:18.320Z,95.64
2018-03-17T08:39:18.001Z,95.92
2018-03-17T08:40:17.734Z,95.45
2018-03-17T08:41:18.080Z,95.83
2018-03-17T08:42:18.594Z,95.36
2018-03-17T08:43:17.768Z,95.64
2018-03-17T08:44:17.934Z,95.73
2018-03-17T08:45:17.959Z,95.92
2018-03-17T08:46:17.392Z,95.73
2018-03-17T08:47:17.718Z,95.83
2018-03-17T08:48:17.641Z,95.64
2018-03-17T08:49:17.312Z,95.83
2018-03-17T08:50:17.228Z,96.39
2018-03-17T08:51:17.166Z,96.2
2018-03-17T08:52:17.418Z,96.58
2018-03-17T08:53:17.948Z,96.68
2018-03-17T08:54:17.227Z,95.83
2018-03-17T08:55:16.979Z,96.3
2018-03-17T08:56:17.057Z,96.49
2018-03-17T08:57:17.198Z,95.73
2018-03-17T08:58:17.034Z,96.39
2018-03-17T08:59:17.237Z,96.3
2018-03-17T09:00:17.396Z,95.83
2018-03-17T09:01:18.067Z,95.92
2018-03-17T09:02:17.181Z,95.92
2018-03-17T09:03:17.516Z,95.73
2018-03-17T09:04:17.578Z,96.01
2018-03-17T09:05:17.431Z,95.54
2018-03-17T09:06:17.766Z,95.45
2018-03-17T09:07:17.147Z,95.73
2018-03-17T09:08:17.489Z,95.73
2018-03-17T09:09:17.188Z,95.64
2018-03-17T09:10:17.304Z,95.54
2018-03-17T09:11:17.219Z,95.54
2018-03-17T09:12:16.867Z,95.64
2018-03-17T09:13:17.653Z,95.36
2018-03-17T09:14:17.452Z,95.26
2018-03-17T09:15:17.167Z,95.07
2018-03-17T09:16:17.646Z,95.07
2018-03-17T09:17:17.128Z,94.51
2018-03-17T09:18:16.833Z,93.47
2018-03-17T09:19:16.994Z,93.28
2018-03-17T09:20:16.831Z,92.9
2018-03-17T09:21:16.624Z,92.61
2018-03-17T09:22:16.893Z,92.61
2018-03-17T09:23:16.545Z,91.67
2018-03-17T09:24:16.240Z,91.3
2018-03-17T09:25:17.247Z,90.54
2018-03-17T09:26:17.360Z,90.16
2018-03-17T09:27:16.682Z,89.88
2018-03-17T09:28:16.776Z,89.78
2018-03-17T09:29:17.312Z,89.97
2018-03-17T09:30:15.794Z,89.5
2018-03-17T09:31:16.375Z,88.93
2018-03-17T09:32:15.687Z,88.37
2018-03-17T09:33:16.380Z,87.71
2018-03-17T09:34:16.758Z,87.9
2018-03-17T09:35:16.168Z,87.8
2018-03-17T09:36:16.219Z,87.62
2018-03-17T09:37:16.073Z,87.43
2018-03-17T09:38:15.628Z,87.8
2018-03-17T09:39:15.900Z,87.52
2018-03-17T09:40:16.024Z,87.24
2018-03-17T09:41:15.761Z,87.24
2018-03-17T09:42:15.926Z,87.43
2018-03-17T09:43:16.012Z,86.95
2018-03-17T09:44:15.859Z,86.67
2018-03-17T09:45:15.923Z,86.86
2018-03-17T09:46:15.421Z,86.19
2018-03-17T09:47:15.868Z,86.19
2018-03-17T09:48:15.455Z,86.1
2018-03-17T09:49:15.258Z,86.38
2018-03-17T09:50:15.244Z,86.1
2018-03-17T09:51:15.177Z,86.48
2018-03-17T09:52:15.295Z,86.67
2018-03-17T09:53:15.429Z,86.95
2018-03-17T09:54:15.189Z,86.48
2018-03-17T09:55:15.482Z,86.86
2018-03-17T09:56:15.324Z,86.57
2018-03-17T09:57:15.168Z,86.76
2018-03-17T09:58:15.114Z,86.29
2018-03-17T09:59:15.474Z,86.29
2018-03-17T10:00:14.676Z,86.19
2018-03-17T10:01:14.934Z,86.1
2018-03-17T10:02:14.835Z,86.01
2018-03-17T10:03:14.841Z,85.44
2018-03-17T10:04:15.287Z,85.25
2018-03-17T10:05:14.784Z,85.63
2018-03-17T10:06:15.418Z,85.53
2018-03-17T10:07:15.246Z,84.88
2018-03-17T10:08:14.632Z,84.59
2018-03-17T10:09:14.783Z,84.03
2018-03-17T10:10:14.731Z,84.22
2018-03-17T10:11:14.962Z,84.12
2018-03-17T10:12:14.893Z,84.22
2018-03-17T10:13:14.579Z,84.5
2018-03-17T10:14:15.206Z,84.03
2018-03-17T10:15:14.231Z,84.41
2018-03-17T10:16:14.780Z,83.65
2018-03-17T10:17:14.345Z,82.42
2018-03-17T10:18:14.394Z,82.23
2018-03-17T10:19:14.934Z,82.42
2018-03-17T10:20:14.359Z,81.95
2018-03-17T10:21:14.529Z,82.23
2018-03-17T10:22:14.503Z,82.32
2018-03-17T10:23:14.094Z,82.14
2018-03-17T10:24:14.105Z,81.95
2018-03-17T10:25:14.551Z,81.95
2018-03-17T10:26:14.143Z,81.57
2018-03-17T10:27:14.476Z,81.85
2018-03-17T10:28:14.773Z,82.04
2018-03-17T10:29:13.841Z,82.23
2018-03-17T10:30:14.595Z,82.32
2018-03-17T10:31:14.998Z,82.14
2018-03-17T10:32:14.282Z,82.04
2018-03-17T10:33:13.964Z,82.04
2018-03-17T10:34:14.823Z,81.76
2018-03-17T10:35:14.140Z,81.2
2018-03-17T10:36:13.947Z,81.01
2018-03-17T10:37:14.293Z,80.91
2018-03-17T10:38:13.957Z,81.1
2018-03-17T10:39:13.984Z,81.1
2018-03-17T10:40:14.210Z,81.38
2018-03-17T10:41:13.714Z,81.48
2018-03-17T10:42:13.553Z,81.48
2018-03-17T10:43:13.311Z,81.76
2018-03-17T10:44:13.898Z,81.76
2018-03-17T10:45:13.816Z,81.1
2018-03-17T10:46:13.399Z,81.2
2018-03-17T10:47:13.118Z,81.01
2018-03-17T10:48:13.295Z,81.1
2018-03-17T10:49:13.703Z,81.01
2018-03-17T10:50:13.013Z,81.01
2018-03-17T10:51:13.263Z,80.91
2018-03-17T10:52:13.109Z,81.38
2018-03-17T10:53:13.478Z,81.29
2018-03-17T10:54:13.016Z,81.1
2018-03-17T10:55:12.980Z,81.01
2018-03-17T10:56:12.950Z,80.82
2018-03-17T10:57:12.915Z,81.01
2018-03-17T10:58:12.891Z,80.91
2018-03-17T10:59:12.603Z,81.01
2018-03-17T11:00:12.587Z,81.1
2018-03-17T11:01:12.786Z,81.38
2018-03-17T11:02:12.755Z,82.14
2018-03-17T11:03:12.719Z,81.57
2018-03-17T11:04:12.694Z,81.76
2018-03-17T11:05:12.655Z,82.04
2018-03-17T11:06:12.738Z,81.85
2018-03-17T11:07:12.587Z,81.95
2018-03-17T11:08:12.552Z,82.14
2018-03-17T11:09:12.522Z,81.95
2018-03-17T11:10:12.244Z,82.32
2018-03-17T11:11:12.457Z,82.51
2018-03-17T11:12:12.433Z,82.32
2018-03-17T11:13:12.390Z,82.7
2018-03-17T11:14:12.361Z,82.89
2018-03-17T11:15:12.326Z,82.89
2018-03-17T11:16:12.295Z,82.99
2018-03-17T11:17:12.262Z,82.89
2018-03-17T11:18:12.226Z,83.08
2018-03-17T11:19:11.945Z,82.42
2018-03-17T11:20:12.164Z,82.42
2018-03-17T11:21:12.129Z,82.04
2018-03-17T11:22:12.118Z,82.23
2018-03-17T11:23:12.062Z,81.76
2018-03-17T11:24:11.782Z,81.95
2018-03-17T11:25:11.994Z,81.95
2018-03-17T11:26:11.965Z,81.76
2018-03-17T11:27:11.686Z,82.04
2018-03-17T11:28:11.653Z,81.85
2018-03-17T11:29:11.616Z,81.48
2018-03-17T11:30:11.834Z,81.38
2018-03-17T11:31:11.802Z,81.1
2018-03-17T11:32:11.775Z,80.63
2018-03-17T11:33:11.743Z,80.72
2018-03-17T11:34:11.454Z,81.1
2018-03-17T11:35:11.668Z,81.1
2018-03-17T11:36:11.388Z,81.48
2018-03-17T11:37:11.604Z,81.67
2018-03-17T11:38:11.573Z,81.01
2018-03-17T11:39:11.537Z,80.91
2018-03-17T11:40:11.504Z,81.1
2018-03-17T11:41:11.478Z,81.67
2018-03-17T11:42:11.443Z,81.95
2018-03-17T11:43:11.558Z,82.32
2018-03-17T11:44:11.372Z,81.76
2018-03-17T11:45:11.341Z,81.38
2018-03-17T11:46:11.366Z,81.29
2018-03-17T11:47:11.275Z,81.48
2018-03-17T11:48:11.243Z,81.1
2018-03-17T11:49:11.208Z,81.01
2018-03-17T11:50:11.176Z,81.29
2018-03-17T11:51:11.144Z,80.44
2018-03-17T11:52:11.107Z,80.82
2018-03-17T11:53:11.076Z,80.82
2018-03-17T11:54:11.043Z,80.53
2018-03-17T11:55:11.010Z,80.91
2018-03-17T11:56:10.980Z,80.82
2018-03-17T11:57:10.947Z,80.72
2018-03-17T11:58:10.912Z,80.72
2018-03-17T11:59:10.881Z,81.01
2018-03-17T12:00:10.848Z,80.34
2018-03-17T12:01:10.562Z,80.34
2018-03-17T12:02:10.784Z,80.25
2018-03-17T12:03:10.754Z,80.34
2018-03-17T12:04:10.719Z,80.44
2018-03-17T12:05:10.679Z,80.34
2018-03-17T12:06:10.646Z,80.34
2018-03-17T12:07:10.615Z,80.53
2018-03-17T12:08:10.579Z,80.44
2018-03-17T12:09:10.547Z,80.06
2018-03-17T12:10:10.588Z,79.97
2018-03-17T12:11:10.494Z,79.78
2018-03-17T12:12:10.450Z,79.87
2018-03-17T12:13:10.415Z,79.78
2018-03-17T12:14:10.384Z,79.87
2018-03-17T12:15:10.346Z,79.78
2018-03-17T12:16:10.317Z,79.4
2018-03-17T12:17:10.285Z,79.59
2018-03-17T12:18:10.250Z,79.3
2018-03-17T12:19:10.216Z,79.4
2018-03-17T12:20:09.932Z,79.4
2018-03-17T12:21:10.154Z,79.49
2018-03-17T12:22:10.128Z,78.64
2018-03-17T12:23:10.086Z,79.02
2018-03-17T12:24:09.802Z,79.21
2018-03-17T12:25:10.025Z,79.59
2018-03-17T12:26:09.988Z,79.21
2018-03-17T12:27:09.704Z,79.59
2018-03-17T12:28:09.917Z,79.3
2018-03-17T12:29:09.890Z,78.92
2018-03-17T12:30:09.852Z,79.02
2018-03-17T12:31:09.820Z,78.83
2018-03-17T12:32:09.784Z,78.83
2018-03-17T12:33:09.756Z,78.83
2018-03-17T12:34:09.723Z,78.64
2018-03-17T12:35:09.683Z,78.74
2018-03-17T12:36:09.651Z,78.27
2018-03-17T12:37:09.389Z,77.98
2018-03-17T12:38:09.589Z,78.08
2018-03-17T12:39:09.550Z,77.89
2018-03-17T12:40:09.521Z,78.27
2018-03-17T12:41:09.558Z,77.89
2018-03-17T12:42:09.200Z,77.89
2018-03-17T12:43:09.418Z,78.17
2018-03-17T12:44:09.385Z,78.17
2018-03-17T12:45:09.355Z,78.08
2018-03-17T12:46:09.315Z,77.7
2018-03-17T12:47:09.289Z,78.27
2018-03-17T12:48:09.251Z,78.17
2018-03-17T12:49:09.220Z,77.8
2018-03-17T12:50:09.185Z,77.61
2018-03-17T12:51:09.154Z,77.51
2018-03-17T12:52:09.120Z,77.61
2018-03-17T12:53:09.091Z,77.8
2018-03-17T12:54:09.578Z,77.98
2018-03-17T12:55:08.770Z,78.17
2018-03-17T12:56:08.983Z,78.27